createdAt,value
2023-01-11T00:00:41.975Z,6.97
2023-01-11T00:03:44.043Z,7.65
2023-01-11T00:06:46.993Z,6.38
2023-01-11T00:09:49.201Z,7.18
2023-01-11T00:12:51.267Z,5.97
2023-01-11T00:15:53.392Z,7.97
2023-01-11T00:18:56.117Z,5.60
2023-01-11T00:21:58.240Z,5.75
2023-01-11T00:25:00.317Z,6.07
2023-01-11T00:28:02.385Z,6.05
2023-01-11T00:31:04.666Z,12.40
2023-01-11T00:34:06.866Z,6.00
2023-01-11T00:37:10.644Z,5.47
2023-01-11T00:40:13.416Z,5.10
2023-01-11T00:43:33.926Z,5.63
2023-01-11T00:49:56.644Z,7.32
2023-01-11T00:52:59.683Z,8.63
2023-01-11T00:56:01.733Z,7.68
2023-01-11T00:59:07.363Z,5.97
2023-01-11T01:02:11.525Z,5.05
2023-01-11T01:05:14.037Z,4.70
2023-01-11T01:08:16.264Z,6.30
2023-01-11T01:11:18.673Z,8.15
2023-01-11T01:14:33.151Z,5.93
2023-01-11T01:17:35.333Z,5.05
2023-01-11T01:20:37.836Z,6.03
2023-01-11T01:23:39.963Z,7.05
2023-01-11T01:26:42.331Z,13.23
2023-01-11T01:29:44.852Z,21.65
2023-01-11T01:32:46.927Z,30.50
2023-01-11T01:35:49.032Z,27.67
2023-01-11T01:38:51.365Z,30.83
2023-01-11T01:41:53.368Z,42.08
2023-01-11T01:45:00.498Z,40.15
2023-01-11T01:48:05.921Z,35.35
2023-01-11T01:51:11.298Z,24.42
2023-01-11T01:54:22.871Z,12.90
2023-01-11T01:57:30.081Z,9.65
2023-01-11T02:00:33.385Z,8.73
2023-01-11T02:03:35.449Z,7.90
2023-01-11T02:06:38.005Z,6.55
2023-01-11T02:10:11.611Z,6.95
2023-01-11T02:13:14.556Z,5.32
2023-01-11T02:16:16.596Z,7.35
2023-01-11T02:19:23.132Z,4.50
2023-01-11T02:22:54.986Z,5.30
2023-01-11T02:26:02.953Z,4.78
2023-01-11T02:29:18.063Z,3.80
2023-01-11T02:33:03.263Z,7.70
2023-01-11T02:36:09.626Z,6.38
2023-01-11T02:39:26.598Z,7.22
2023-01-11T02:43:21.453Z,11.77
2023-01-11T02:46:34.827Z,7.43
2023-01-11T02:49:43.928Z,6.38
2023-01-11T02:53:38.023Z,10.27
2023-01-11T02:56:47.105Z,5.22
2023-01-11T02:59:50.829Z,3.90
2023-01-11T03:03:24.677Z,7.80
2023-01-11T03:06:32.180Z,4.22
2023-01-11T03:10:08.382Z,2.53
2023-01-11T03:13:37.045Z,10.15
2023-01-11T03:16:51.292Z,7.00
2023-01-11T03:20:07.323Z,5.60
2023-01-11T03:23:14.817Z,5.15
2023-01-11T03:26:19.322Z,4.95
2023-01-11T03:29:31.117Z,8.85
2023-01-11T03:32:35.816Z,4.60
2023-01-11T03:35:51.953Z,5.65
2023-01-11T03:39:23.028Z,7.45
2023-01-11T03:42:28.327Z,5.60
2023-01-11T03:45:34.184Z,5.22
2023-01-11T03:48:52.060Z,5.55
2023-01-11T03:51:56.540Z,3.95
2023-01-11T03:54:59.747Z,6.57
2023-01-11T03:58:01.887Z,5.07
2023-01-11T04:01:04.385Z,8.05
2023-01-11T04:04:06.971Z,6.30
2023-01-11T04:07:09.107Z,6.07
2023-01-11T04:10:12.009Z,6.07
2023-01-11T04:13:14.013Z,5.57
2023-01-11T04:16:16.188Z,4.50
2023-01-11T04:19:18.327Z,4.90
2023-01-11T04:22:20.499Z,3.97
2023-01-11T04:25:22.564Z,6.22
2023-01-11T04:28:45.817Z,6.88
2023-01-11T04:31:47.935Z,14.82
2023-01-11T04:34:50.608Z,6.13
2023-01-11T04:37:57.050Z,6.03
2023-01-11T04:41:17.886Z,5.63
2023-01-11T04:44:19.893Z,6.72
2023-01-11T04:47:24.367Z,6.10
2023-01-11T04:50:27.976Z,5.72
2023-01-11T04:53:30.112Z,4.35
2023-01-11T04:56:32.633Z,8.85
2023-01-11T04:59:34.785Z,10.23
2023-01-11T05:02:38.014Z,7.93
2023-01-11T05:05:40.132Z,10.00
2023-01-11T05:08:46.272Z,7.10
2023-01-11T05:11:48.514Z,8.20
2023-01-11T05:14:50.568Z,7.78
2023-01-11T05:17:52.688Z,8.15
2023-01-11T05:20:54.799Z,7.97
2023-01-11T05:23:58.349Z,8.93
2023-01-11T05:27:00.554Z,5.70
2023-01-11T05:30:02.727Z,12.57
2023-01-11T05:33:06.782Z,13.35
2023-01-11T05:36:13.599Z,10.88
2023-01-11T05:39:15.679Z,15.63
2023-01-11T05:42:17.815Z,22.80
2023-01-11T05:45:29.122Z,39.78
2023-01-11T05:48:31.481Z,34.90
2023-01-11T05:51:34.427Z,41.13
2023-01-11T05:54:37.352Z,45.20
2023-01-11T05:57:46.750Z,42.65
2023-01-11T06:00:50.365Z,31.98
2023-01-11T06:03:52.811Z,34.40
2023-01-11T06:06:54.993Z,31.50
2023-01-11T06:09:57.231Z,20.85
2023-01-11T06:13:17.794Z,15.15
2023-01-11T06:16:21.077Z,13.70
2023-01-11T06:19:23.296Z,23.70
2023-01-11T06:22:25.405Z,26.00
2023-01-11T06:25:28.282Z,26.13
2023-01-11T06:28:31.204Z,20.35
2023-01-11T06:31:33.312Z,19.92
2023-01-11T06:34:35.412Z,20.85
2023-01-11T06:37:37.604Z,21.85
2023-01-11T06:40:41.149Z,20.83
2023-01-11T06:43:43.350Z,25.55
2023-01-11T06:46:45.547Z,18.60
2023-01-11T06:49:47.668Z,25.63
2023-01-11T06:52:54.440Z,18.00
2023-01-11T06:55:58.295Z,31.15
2023-01-11T06:59:00.467Z,28.23
2023-01-11T07:02:02.776Z,27.23
2023-01-11T07:05:05.446Z,21.88
2023-01-11T07:08:08.129Z,18.15
2023-01-11T07:11:10.353Z,11.65
2023-01-11T07:14:15.156Z,12.75
2023-01-11T07:17:17.251Z,13.15
2023-01-11T07:20:19.825Z,14.70
2023-01-11T07:23:22.219Z,20.40
2023-01-11T07:26:26.510Z,19.13
2023-01-11T07:29:29.402Z,9.48
2023-01-11T07:32:31.701Z,12.80
2023-01-11T07:35:33.825Z,10.20
2023-01-11T07:38:35.964Z,9.93
2023-01-11T07:41:56.668Z,9.52
2023-01-11T07:44:58.881Z,11.80
2023-01-11T07:48:02.046Z,9.00
2023-01-11T07:51:04.200Z,8.88
2023-01-11T07:54:06.856Z,6.95
2023-01-11T07:57:08.989Z,7.40
2023-01-11T08:00:11.815Z,7.32
2023-01-11T08:03:14.484Z,8.63
2023-01-11T08:06:17.084Z,8.50
2023-01-11T08:09:19.405Z,8.40
2023-01-11T08:12:40.018Z,7.57
2023-01-11T08:15:44.985Z,9.38
2023-01-11T08:18:47.178Z,11.38
2023-01-11T08:21:50.864Z,6.45
2023-01-11T08:24:53.005Z,7.05
2023-01-11T08:27:55.119Z,9.38
2023-01-11T08:30:57.252Z,11.48
2023-01-11T08:33:59.434Z,9.52
2023-01-11T08:37:02.272Z,9.90
2023-01-11T08:40:05.241Z,14.50
2023-01-11T08:43:07.452Z,11.57
2023-01-11T08:46:10.350Z,9.27
2023-01-11T08:49:12.918Z,6.57
2023-01-11T08:52:15.043Z,8.25
2023-01-11T08:55:17.252Z,6.30
2023-01-11T08:58:21.531Z,6.35
2023-01-11T09:01:23.748Z,5.90
2023-01-11T09:04:26.596Z,9.23
2023-01-11T09:07:28.667Z,4.70
2023-01-11T09:10:34.908Z,6.63
2023-01-11T09:13:37.082Z,4.53
2023-01-11T09:16:39.338Z,4.85
2023-01-11T09:19:41.451Z,5.07
2023-01-11T09:22:52.894Z,6.28
2023-01-11T09:25:56.031Z,12.13
2023-01-11T09:28:58.302Z,8.82
2023-01-11T09:32:00.517Z,9.05
2023-01-11T09:35:04.660Z,11.98
2023-01-11T09:38:06.788Z,11.52
2023-01-11T09:41:17.183Z,6.15
2023-01-11T09:44:25.546Z,5.20
2023-01-11T09:47:38.650Z,5.32
2023-01-11T09:50:47.875Z,6.32
2023-01-11T09:53:52.359Z,4.80
2023-01-11T09:57:10.713Z,5.68
2023-01-11T10:00:22.347Z,8.43
2023-01-11T10:03:51.780Z,8.25
2023-01-11T10:07:23.170Z,7.63
2023-01-11T10:18:23.557Z,7.40
2023-01-11T10:21:35.934Z,25.20
2023-01-11T10:24:46.280Z,10.25
2023-01-11T10:28:23.087Z,15.43
2023-01-11T10:31:44.990Z,11.80
2023-01-11T10:35:10.388Z,11.15
2023-01-11T10:38:59.879Z,8.52
2023-01-11T10:42:10.459Z,9.30
2023-01-11T10:45:23.798Z,11.80
2023-01-11T10:48:38.310Z,10.45
2023-01-11T10:51:45.874Z,11.48
2023-01-11T10:54:53.329Z,12.48
2023-01-11T10:58:25.319Z,10.20
2023-01-11T11:01:49.163Z,9.35
2023-01-11T11:05:09.154Z,7.25
2023-01-11T11:08:26.475Z,7.20
2023-01-11T11:11:38.886Z,6.22
2023-01-11T11:15:16.641Z,6.20
2023-01-11T11:18:18.808Z,8.13
2023-01-11T11:21:28.590Z,6.22
2023-01-11T11:24:37.492Z,6.53
2023-01-11T11:27:43.287Z,8.90
2023-01-11T11:30:47.387Z,7.90
2023-01-11T11:33:49.897Z,5.65
2023-01-11T11:36:53.490Z,7.32
2023-01-11T11:39:56.299Z,3.22
2023-01-11T11:43:19.558Z,4.00
2023-01-11T11:46:27.307Z,4.82
2023-01-11T11:49:32.364Z,3.60
2023-01-11T11:52:34.682Z,11.95
2023-01-11T11:55:36.906Z,2.72
2023-01-11T11:58:41.569Z,4.75
2023-01-11T12:01:47.357Z,5.68
2023-01-11T12:04:51.060Z,5.35
2023-01-11T12:07:55.412Z,7.43
2023-01-11T12:11:04.135Z,4.65
2023-01-11T12:14:32.730Z,5.28
2023-01-11T12:17:35.474Z,4.47
2023-01-11T12:20:41.311Z,6.13
2023-01-11T12:23:43.638Z,3.55
2023-01-11T12:27:13.789Z,4.60
2023-01-11T12:30:49.992Z,4.93
2023-01-11T12:33:57.896Z,5.22
2023-01-11T12:37:06.095Z,4.68
2023-01-11T12:40:43.953Z,3.60
2023-01-11T12:44:10.947Z,6.32
2023-01-11T12:47:25.595Z,4.45
2023-01-11T12:50:51.082Z,3.30
2023-01-11T12:54:06.149Z,4.60
2023-01-11T12:57:56.402Z,4.95
2023-01-11T13:01:17.098Z,3.00
2023-01-11T13:04:37.061Z,4.82
2023-01-11T13:07:42.143Z,4.97
2023-01-11T13:10:47.676Z,4.70
2023-01-11T13:14:03.129Z,8.52
2023-01-11T13:17:20.853Z,5.90
2023-01-11T13:21:00.011Z,4.75
2023-01-11T13:24:08.680Z,5.70
2023-01-11T13:27:17.931Z,9.07
2023-01-11T13:30:24.356Z,9.20
2023-01-11T13:33:30.996Z,10.88
2023-01-11T13:36:42.839Z,9.98
2023-01-11T13:40:12.105Z,12.23
2023-01-11T13:43:36.703Z,12.63
2023-01-11T13:47:13.512Z,13.55
2023-01-11T13:50:27.842Z,11.05
2023-01-11T13:53:44.006Z,13.38
2023-01-11T13:57:06.727Z,6.32
2023-01-11T14:00:46.517Z,7.32
2023-01-11T14:03:52.069Z,4.35
2023-01-11T14:07:09.316Z,9.85
2023-01-11T14:10:31.293Z,5.40
2023-01-11T14:14:10.104Z,5.10
2023-01-11T14:17:30.082Z,4.43
2023-01-11T14:20:50.024Z,4.43
2023-01-11T14:23:54.832Z,9.20
2023-01-11T14:27:22.522Z,8.80
2023-01-11T14:30:43.727Z,9.63
2023-01-11T14:34:11.057Z,3.60
2023-01-11T14:37:31.096Z,4.97
2023-01-11T14:40:57.655Z,5.88
2023-01-11T14:44:26.843Z,7.72
2023-01-11T14:47:45.482Z,6.22
2023-01-11T14:51:09.042Z,5.22
2023-01-11T14:54:14.645Z,5.03
2023-01-11T14:57:41.047Z,4.80
2023-01-11T15:00:43.144Z,5.13
2023-01-11T15:03:49.311Z,3.80
2023-01-11T15:06:55.344Z,5.18
2023-01-11T15:09:59.467Z,6.22
2023-01-11T15:13:12.666Z,4.80
2023-01-11T15:16:48.437Z,5.47
2023-01-11T15:19:53.315Z,3.53
2023-01-11T15:23:06.295Z,4.35
2023-01-11T15:26:09.657Z,6.25
2023-01-11T15:29:40.453Z,13.48
2023-01-11T15:32:43.972Z,25.80
2023-01-11T15:36:02.749Z,41.42
2023-01-11T15:39:07.614Z,14.00
2023-01-11T15:42:15.508Z,11.07
2023-01-11T15:45:34.311Z,9.38
2023-01-11T15:49:03.510Z,11.20
2023-01-11T15:52:50.443Z,11.27
2023-01-11T15:56:27.918Z,6.47
2023-01-11T15:59:47.619Z,13.77
2023-01-11T16:03:08.366Z,17.38
2023-01-11T16:06:28.167Z,25.52
2023-01-11T16:09:45.721Z,32.13
2023-01-11T16:13:26.527Z,27.30
2023-01-11T16:16:40.230Z,18.77
2023-01-11T16:19:45.825Z,25.08
2023-01-11T16:23:07.447Z,18.40
2023-01-11T16:26:14.178Z,24.65
2023-01-11T16:29:23.066Z,26.38
2023-01-11T16:32:32.915Z,32.33
2023-01-11T16:35:35.060Z,49.88
2023-01-11T16:39:07.436Z,32.75
2023-01-11T16:42:11.127Z,38.58
2023-01-11T16:45:22.628Z,36.72
2023-01-11T16:48:25.707Z,21.00
2023-01-11T16:51:27.808Z,7.10
2023-01-11T16:54:33.373Z,8.63
2023-01-11T16:57:40.711Z,13.25
2023-01-11T17:00:43.396Z,17.05
2023-01-11T17:03:53.920Z,41.45
2023-01-11T17:07:15.887Z,27.30
2023-01-11T17:10:28.021Z,14.20
2023-01-11T17:13:54.412Z,9.35
2023-01-11T17:17:01.078Z,9.15
2023-01-11T17:20:05.115Z,16.23
2023-01-11T17:23:07.469Z,33.13
2023-01-11T17:26:18.549Z,30.10
2023-01-11T17:29:34.672Z,26.55
2023-01-11T17:32:40.728Z,24.52
2023-01-11T17:35:42.931Z,23.30
2023-01-11T17:38:45.527Z,13.82
2023-01-11T17:42:06.276Z,22.60
2023-01-11T17:45:21.835Z,24.85
2023-01-11T17:48:27.039Z,21.42
2023-01-11T17:51:34.264Z,26.00
2023-01-11T17:54:36.636Z,17.25
2023-01-11T17:57:39.136Z,19.55
2023-01-11T18:00:47.073Z,14.18
2023-01-11T18:03:52.015Z,14.63
2023-01-11T18:06:56.812Z,12.40
2023-01-11T18:10:02.185Z,13.63
2023-01-11T18:13:05.479Z,12.60
2023-01-11T18:16:07.600Z,11.40
2023-01-11T18:19:40.367Z,13.65
2023-01-11T18:23:05.021Z,75.78
2023-01-11T18:26:27.193Z,24.15
2023-01-11T18:29:38.911Z,11.93
2023-01-11T18:32:43.491Z,15.23
2023-01-11T18:35:49.090Z,15.13
2023-01-11T18:38:51.999Z,54.40
2023-01-11T18:42:10.151Z,16.38
2023-01-11T18:45:13.415Z,12.88
2023-01-11T18:48:16.297Z,13.63
2023-01-11T18:51:31.567Z,7.95
2023-01-11T18:54:35.571Z,160.07
2023-01-11T18:57:37.968Z,42.92
2023-01-11T19:00:43.190Z,35.45
2023-01-11T19:03:46.384Z,36.28
2023-01-11T19:06:49.657Z,21.60
2023-01-11T19:09:54.867Z,30.67
2023-01-11T19:12:57.965Z,66.13
2023-01-11T19:16:02.625Z,47.47
2023-01-11T19:19:06.129Z,20.13
2023-01-11T19:22:10.602Z,11.23
2023-01-11T19:25:13.343Z,85.57
2023-01-11T19:28:15.855Z,18.23
2023-01-11T19:31:18.740Z,12.30
2023-01-11T19:34:22.175Z,16.75
2023-01-11T19:37:27.606Z,28.67
2023-01-11T19:40:29.888Z,19.52
2023-01-11T19:43:32.642Z,17.83
2023-01-11T19:46:35.441Z,13.57
2023-01-11T19:49:38.570Z,11.43
2023-01-11T19:52:41.567Z,12.05
2023-01-11T19:55:44.384Z,23.25
2023-01-11T19:58:47.406Z,33.08
2023-01-11T20:01:50.534Z,19.67
2023-01-11T20:04:53.417Z,15.55
2023-01-11T20:07:57.965Z,21.88
2023-01-11T20:11:05.634Z,19.15
2023-01-11T20:14:08.542Z,13.82
2023-01-11T20:17:11.378Z,17.27
2023-01-11T20:20:16.890Z,19.67
2023-01-11T20:23:19.659Z,27.30
2023-01-11T20:26:23.314Z,17.70
2023-01-11T20:29:25.851Z,15.18
2023-01-11T20:32:40.842Z,20.10
2023-01-11T20:35:45.102Z,19.35
2023-01-11T20:42:08.904Z,26.60
2023-01-11T20:45:12.065Z,44.17
2023-01-11T20:48:15.062Z,85.97
2023-01-11T20:51:17.432Z,78.35
2023-01-11T20:54:20.273Z,65.40
2023-01-11T20:57:22.732Z,57.28
2023-01-11T21:00:25.511Z,71.85
2023-01-11T21:03:27.578Z,48.50
2023-01-11T21:06:31.820Z,37.00
2023-01-11T21:09:33.984Z,32.65
2023-01-11T21:12:36.140Z,35.00
2023-01-11T21:15:38.190Z,32.97
2023-01-11T21:18:43.771Z,35.78
2023-01-11T21:21:46.380Z,29.25
2023-01-11T21:24:49.213Z,25.30
2023-01-11T21:27:51.265Z,34.60
2023-01-11T21:31:01.492Z,41.10
2023-01-11T21:34:04.115Z,33.03
2023-01-11T21:37:06.159Z,34.42
2023-01-11T21:40:09.810Z,30.40
2023-01-11T21:43:16.163Z,24.10
2023-01-11T21:46:18.312Z,19.77
2023-01-11T21:49:22.499Z,20.85
2023-01-11T21:52:25.332Z,57.38
2023-01-11T21:55:27.438Z,22.38
2023-01-11T21:58:29.784Z,37.30
2023-01-11T22:01:31.943Z,21.65
2023-01-11T22:04:35.182Z,19.52
2023-01-11T22:07:39.643Z,24.55
2023-01-11T22:10:41.774Z,26.90
2023-01-11T22:13:44.281Z,55.65
2023-01-11T22:16:46.417Z,20.95
2023-01-11T22:19:48.539Z,25.35
2023-01-11T22:22:50.941Z,22.02
2023-01-11T22:25:53.107Z,19.85
2023-01-11T22:29:14.591Z,19.98
2023-01-11T22:32:17.169Z,24.23
2023-01-11T22:35:19.261Z,21.65
2023-01-11T22:38:21.399Z,22.08
2023-01-11T22:41:25.078Z,21.58
2023-01-11T22:44:27.494Z,21.55
2023-01-11T22:47:29.597Z,21.85
2023-01-11T22:50:32.085Z,20.58
2023-01-11T22:53:41.707Z,18.10
2023-01-11T22:59:46.232Z,19.23
2023-01-11T23:02:48.325Z,20.05
2023-01-11T23:05:50.555Z,19.52
2023-01-11T23:08:53.327Z,22.75
2023-01-11T23:12:13.991Z,19.60
2023-01-11T23:15:16.175Z,21.13
2023-01-11T23:18:19.771Z,20.33
2023-01-11T23:21:21.852Z,20.73
2023-01-11T23:24:24.249Z,19.77
2023-01-11T23:27:26.377Z,18.88
2023-01-11T23:30:28.743Z,22.35
2023-01-11T23:33:30.901Z,27.83
2023-01-11T23:36:35.181Z,36.88
2023-01-11T23:39:37.329Z,43.45
2023-01-11T23:42:39.487Z,39.55
2023-01-11T23:45:41.606Z,42.63
2023-01-11T23:48:43.745Z,41.53
2023-01-11T23:51:46.216Z,35.90
2023-01-11T23:54:48.784Z,34.13
2023-01-11T23:58:09.054Z,39.47
